Western Head, Canada
Current Conditions -  °F | °C
As of 9:00 AM on Friday 24 Oct 2014 (Local Time) from CYZX Reporting Station
Overcast Overcast  
Wind Chill: 12°   Ceiling: 700
Heat Index: 12°   Visibility: 10mi
Dew Point: 11°   Wind: 13mph
Humidity: 94%   Direction: 50°NE
Pressure: 29.57"   Gusts: 18mph
Location:  43.99°N, 64.68°W
Report Text: CYZX 241200Z 05011G16KT 10SM OVC007 12/11 A2957 RMK SF8 WNDY HILL UNAVBL SLP015
Loading
Personal Weather Stations






























Interactive Weather Map
Tropical Storm Tracking
New forecast layout! Learn more

10-Day Weather Forecast

Advertisements
Track Severe Weather on mobile